createdAt,value
2019-05-22T00:02:15.173Z,97.00
2019-05-22T00:04:49.317Z,96.80
2019-05-22T00:07:19.213Z,96.70
2019-05-22T00:09:50.683Z,96.60
2019-05-22T00:12:20.764Z,96.70
2019-05-22T00:14:52.975Z,96.80
2019-05-22T00:17:26.814Z,96.60
2019-05-22T00:19:56.662Z,96.60
2019-05-22T00:22:28.621Z,96.60
2019-05-22T00:24:58.675Z,96.80
2019-05-22T00:27:31.606Z,96.90
2019-05-22T00:30:02.462Z,97.10
2019-05-22T00:32:34.103Z,97.10
2019-05-22T00:35:05.330Z,97.10
2019-05-22T00:37:35.618Z,97.00
2019-05-22T00:40:08.385Z,96.90
2019-05-22T00:42:41.606Z,96.70
2019-05-22T00:45:14.719Z,96.50
2019-05-22T00:47:45.259Z,96.50
2019-05-22T00:50:17.063Z,96.60
2019-05-22T00:52:51.695Z,96.80
2019-05-22T00:55:42.599Z,97.00
2019-05-22T00:58:14.794Z,96.90
2019-05-22T01:00:49.354Z,96.90
2019-05-22T01:03:21.981Z,96.60
2019-05-22T01:05:52.163Z,96.70
2019-05-22T01:08:22.000Z,96.70
2019-05-22T01:10:53.073Z,96.40
2019-05-22T01:13:27.264Z,96.40
2019-05-22T01:15:58.671Z,96.40
2019-05-22T01:18:28.651Z,96.50
2019-05-22T01:21:00.736Z,96.50
2019-05-22T01:23:31.181Z,96.70
2019-05-22T01:26:01.126Z,96.60
2019-05-22T01:28:33.129Z,96.50
2019-05-22T01:31:10.799Z,96.60
2019-05-22T01:33:58.720Z,96.60
2019-05-22T01:36:30.826Z,96.70
2019-05-22T01:39:05.461Z,96.60
2019-05-22T01:41:37.349Z,96.60
2019-05-22T01:44:08.964Z,96.30
2019-05-22T01:46:41.849Z,96.40
2019-05-22T01:49:13.120Z,96.40
2019-05-22T01:51:44.667Z,96.10
2019-05-22T01:54:15.612Z,96.30
2019-05-22T01:56:45.852Z,96.40
2019-05-22T01:59:15.865Z,96.30
2019-05-22T02:01:47.375Z,96.30
2019-05-22T02:04:19.233Z,96.50
2019-05-22T02:06:50.073Z,96.20
2019-05-22T02:09:27.498Z,96.00
2019-05-22T02:12:05.132Z,96.10
2019-05-22T02:14:34.928Z,96.40
2019-05-22T02:17:05.708Z,96.20
2019-05-22T02:19:36.681Z,96.10
2019-05-22T02:22:06.661Z,96.20
2019-05-22T02:24:37.436Z,96.20
2019-05-22T02:27:08.228Z,96.30
2019-05-22T02:29:38.003Z,95.90
2019-05-22T02:32:08.673Z,96.00
2019-05-22T02:34:38.822Z,95.60
2019-05-22T02:37:10.033Z,95.60
2019-05-22T02:39:41.357Z,95.50
2019-05-22T02:42:15.239Z,95.70
2019-05-22T02:44:45.885Z,95.60
2019-05-22T02:47:20.800Z,95.40
2019-05-22T02:49:51.727Z,95.60
2019-05-22T02:52:24.054Z,95.40
2019-05-22T02:54:54.023Z,95.60
2019-05-22T02:57:26.291Z,95.50
2019-05-22T02:59:57.224Z,95.40
2019-05-22T03:02:28.126Z,95.60
2019-05-22T03:05:01.996Z,95.70
2019-05-22T03:07:32.722Z,95.80
2019-05-22T03:10:03.452Z,95.60
2019-05-22T03:12:34.872Z,95.80
2019-05-22T03:15:14.466Z,95.60
2019-05-22T03:17:45.406Z,95.60
2019-05-22T03:20:18.998Z,95.40
2019-05-22T03:23:09.745Z,95.50
2019-05-22T03:25:40.776Z,95.40
2019-05-22T03:28:10.890Z,95.60
2019-05-22T03:30:42.486Z,95.60
2019-05-22T03:33:13.558Z,95.60
2019-05-22T03:35:51.060Z,95.80
2019-05-22T03:38:23.104Z,95.70
2019-05-22T03:40:53.400Z,95.60
2019-05-22T03:43:25.152Z,95.50
2019-05-22T03:45:57.740Z,95.50
2019-05-22T03:48:31.322Z,95.30
2019-05-22T03:51:10.102Z,95.20
2019-05-22T03:53:40.976Z,95.20
2019-05-22T03:56:11.259Z,95.10
2019-05-22T03:58:41.285Z,95.10
2019-05-22T04:01:11.413Z,95.20
2019-05-22T04:03:41.121Z,94.90
2019-05-22T04:06:10.937Z,94.80
2019-05-22T04:08:42.408Z,95.20
2019-05-22T04:11:15.093Z,95.30
2019-05-22T04:13:44.827Z,95.10
2019-05-22T04:16:17.312Z,95.20
2019-05-22T04:18:47.820Z,95.40
2019-05-22T04:21:17.775Z,95.30
2019-05-22T04:23:47.464Z,95.40
2019-05-22T04:26:17.630Z,95.20
2019-05-22T04:28:50.075Z,95.50
2019-05-22T04:31:24.137Z,96.00
2019-05-22T04:33:54.965Z,95.40
2019-05-22T04:36:25.970Z,95.80
2019-05-22T04:39:02.289Z,95.60
2019-05-22T04:41:33.623Z,95.50
2019-05-22T04:44:06.201Z,95.80
2019-05-22T04:46:36.156Z,95.70
2019-05-22T04:49:05.904Z,95.50
2019-05-22T04:51:35.959Z,95.70
2019-05-22T04:54:05.701Z,95.40
2019-05-22T04:56:36.092Z,96.00
2019-05-22T04:59:06.042Z,95.80
2019-05-22T05:01:36.586Z,96.30
2019-05-22T05:04:07.241Z,96.40
2019-05-22T05:06:38.470Z,96.50
2019-05-22T05:09:10.344Z,96.30
2019-05-22T05:11:40.911Z,96.30
2019-05-22T05:14:10.699Z,96.10
2019-05-22T05:16:40.811Z,96.10
2019-05-22T05:19:10.604Z,96.10
2019-05-22T05:21:40.915Z,96.40
2019-05-22T05:24:10.869Z,96.00
2019-05-22T05:26:40.943Z,95.70
2019-05-22T05:29:14.302Z,95.90
2019-05-22T05:31:44.171Z,96.00
2019-05-22T05:34:31.623Z,96.00
2019-05-22T05:37:03.151Z,96.00
2019-05-22T05:39:42.033Z,96.00
2019-05-22T05:42:12.154Z,96.00
2019-05-22T05:44:41.807Z,96.20
2019-05-22T05:47:11.988Z,96.30
2019-05-22T05:49:41.714Z,96.20
2019-05-22T05:52:13.488Z,96.30
2019-05-22T05:54:45.584Z,96.40
2019-05-22T05:57:38.796Z,96.70
2019-05-22T06:00:18.690Z,97.50
2019-05-22T06:02:56.410Z,95.60
2019-05-22T06:05:23.756Z,95.60
2019-05-22T06:07:53.869Z,95.30
2019-05-22T06:10:30.200Z,95.40
2019-05-22T06:13:00.467Z,95.30
2019-05-22T06:15:46.491Z,95.50
2019-05-22T06:18:29.356Z,95.80
2019-05-22T06:21:03.935Z,95.90
2019-05-22T06:23:36.944Z,95.60
2019-05-22T06:26:10.104Z,95.70
2019-05-22T06:28:42.277Z,95.60
2019-05-22T06:31:24.196Z,95.60
2019-05-22T06:33:56.948Z,95.80
2019-05-22T06:36:26.803Z,95.40
2019-05-22T06:39:00.974Z,95.40
2019-05-22T06:41:32.971Z,95.40
2019-05-22T06:44:26.798Z,95.20
2019-05-22T06:46:57.666Z,95.10
2019-05-22T06:49:36.410Z,95.10
2019-05-22T06:52:08.564Z,95.10
2019-05-22T06:54:39.885Z,94.70
2019-05-22T06:57:15.149Z,95.10
2019-05-22T06:59:46.333Z,95.10
2019-05-22T07:02:17.992Z,94.90
2019-05-22T07:04:48.168Z,95.20
2019-05-22T07:07:18.322Z,94.90
2019-05-22T07:09:49.838Z,94.90
2019-05-22T07:12:20.713Z,95.10
2019-05-22T07:15:06.855Z,95.00
2019-05-22T07:17:37.814Z,95.10
2019-05-22T07:20:08.620Z,95.10
2019-05-22T07:22:38.621Z,95.00
2019-05-22T07:25:09.871Z,95.00
2019-05-22T07:27:39.864Z,94.60
2019-05-22T07:30:10.400Z,95.00
2019-05-22T07:32:40.790Z,95.00
2019-05-22T07:35:11.443Z,94.90
2019-05-22T07:37:46.282Z,94.80
2019-05-22T07:40:18.582Z,94.60
2019-05-22T07:42:49.957Z,94.20
2019-05-22T07:45:22.609Z,94.30
2019-05-22T07:47:53.276Z,94.30
2019-05-22T07:50:24.406Z,94.20
2019-05-22T07:52:55.525Z,94.50
2019-05-22T07:55:25.272Z,94.60
2019-05-22T07:58:10.224Z,94.50
2019-05-22T08:00:50.021Z,94.80
2019-05-22T08:03:21.576Z,94.70
2019-05-22T08:05:56.388Z,94.60
2019-05-22T08:08:27.733Z,94.40
2019-05-22T08:10:59.042Z,94.70
2019-05-22T08:13:30.483Z,94.80
2019-05-22T08:16:00.453Z,94.60
2019-05-22T08:18:32.714Z,94.60
2019-05-22T08:21:02.714Z,94.70
2019-05-22T08:23:33.779Z,94.90
2019-05-22T08:26:04.617Z,94.20
2019-05-22T08:28:36.121Z,94.20
2019-05-22T08:31:09.057Z,94.40
2019-05-22T08:33:39.361Z,94.50
2019-05-22T08:36:09.659Z,94.00
2019-05-22T08:38:41.321Z,94.00
2019-05-22T08:41:12.827Z,94.30
2019-05-22T08:44:11.568Z,94.50
2019-05-22T08:46:16.558Z,94.40
2019-05-22T08:48:48.924Z,94.70
2019-05-22T08:51:19.052Z,94.70
2019-05-22T08:53:49.196Z,94.70
2019-05-22T08:56:19.510Z,94.50
2019-05-22T08:58:51.283Z,94.70
2019-05-22T09:01:21.589Z,94.70
2019-05-22T09:03:51.685Z,95.00
2019-05-22T09:06:22.222Z,94.90
2019-05-22T09:08:52.203Z,94.90
2019-05-22T09:11:21.933Z,95.00
2019-05-22T09:13:51.703Z,95.00
2019-05-22T09:16:22.565Z,95.00
2019-05-22T09:18:52.592Z,95.00
2019-05-22T09:21:24.150Z,94.80
2019-05-22T09:23:55.283Z,94.50
2019-05-22T09:26:25.147Z,94.50
2019-05-22T09:28:55.055Z,94.50
2019-05-22T09:31:24.699Z,94.50
2019-05-22T09:33:54.722Z,94.60
2019-05-22T09:36:24.777Z,94.60
2019-05-22T09:38:55.073Z,94.60
2019-05-22T09:41:25.318Z,94.50
2019-05-22T09:43:55.126Z,94.40
2019-05-22T09:46:25.616Z,94.50
2019-05-22T09:48:56.665Z,94.40
2019-05-22T09:51:26.891Z,94.60
2019-05-22T09:53:56.776Z,94.70
2019-05-22T09:56:28.491Z,95.10
2019-05-22T09:58:58.802Z,95.10
2019-05-22T10:01:29.447Z,95.20
2019-05-22T10:04:00.106Z,95.10
2019-05-22T10:06:30.508Z,94.60
2019-05-22T10:09:00.548Z,94.90
2019-05-22T10:11:31.604Z,94.60
2019-05-22T10:14:01.657Z,94.80
2019-05-22T10:16:31.485Z,94.60
2019-05-22T10:19:02.097Z,94.20
2019-05-22T10:21:33.746Z,94.20
2019-05-22T10:24:04.213Z,94.00
2019-05-22T10:26:34.476Z,93.80
2019-05-22T10:29:04.858Z,93.80
2019-05-22T10:31:34.752Z,93.40
2019-05-22T10:34:04.668Z,93.10
2019-05-22T10:36:34.828Z,93.30
2019-05-22T10:39:07.711Z,93.60
2019-05-22T10:41:39.204Z,93.60
2019-05-22T10:44:08.997Z,93.40
2019-05-22T10:46:39.181Z,93.70
2019-05-22T10:49:09.025Z,93.80
2019-05-22T10:51:38.940Z,93.60
2019-05-22T10:54:08.837Z,93.70
2019-05-22T10:56:38.567Z,93.20
2019-05-22T10:59:08.341Z,93.10
2019-05-22T11:01:38.195Z,93.40
2019-05-22T11:04:08.099Z,93.10
2019-05-22T11:06:38.369Z,93.00
2019-05-22T11:09:09.846Z,92.70
2019-05-22T11:11:40.410Z,92.50
2019-05-22T11:14:11.377Z,92.60
2019-05-22T11:16:41.858Z,92.40
2019-05-22T11:19:11.522Z,92.50
2019-05-22T11:21:42.223Z,92.90
2019-05-22T11:24:12.508Z,93.00
2019-05-22T11:26:43.770Z,93.10
2019-05-22T11:29:13.931Z,93.00
2019-05-22T11:31:44.390Z,92.90
2019-05-22T11:34:14.350Z,93.10
2019-05-22T11:36:44.268Z,93.50
2019-05-22T11:39:16.118Z,93.40
2019-05-22T11:41:46.308Z,93.20
2019-05-22T11:44:16.638Z,93.20
2019-05-22T11:46:46.383Z,93.40
2019-05-22T11:49:16.193Z,93.40
2019-05-22T11:51:47.146Z,93.20
2019-05-22T11:54:16.938Z,93.20
2019-05-22T11:56:47.416Z,93.00
2019-05-22T11:59:17.262Z,92.60
2019-05-22T12:01:47.252Z,92.70
2019-05-22T12:04:17.536Z,92.40
2019-05-22T12:06:48.604Z,92.20
2019-05-22T12:09:18.918Z,92.40
2019-05-22T12:12:04.766Z,92.40
2019-05-22T12:14:37.349Z,92.40
2019-05-22T12:17:09.173Z,92.30
2019-05-22T12:19:39.022Z,92.20
2019-05-22T12:22:11.379Z,92.20
2019-05-22T12:24:41.839Z,92.30
2019-05-22T12:27:13.159Z,92.40
2019-05-22T12:29:43.049Z,92.60
2019-05-22T12:32:13.983Z,92.40
2019-05-22T12:34:44.740Z,92.10
2019-05-22T12:37:14.973Z,92.40
2019-05-22T12:39:45.916Z,92.40
2019-05-22T12:42:16.634Z,92.40
2019-05-22T12:47:43.560Z,92.20
2019-05-22T12:50:19.920Z,92.10
2019-05-22T12:52:51.203Z,91.80
2019-05-22T12:55:21.505Z,91.80
2019-05-22T12:57:51.571Z,91.80
2019-05-22T13:00:25.663Z,91.80
2019-05-22T13:02:57.378Z,92.10
2019-05-22T13:05:27.696Z,92.00
2019-05-22T13:07:57.792Z,92.10
2019-05-22T13:10:28.748Z,92.40
2019-05-22T13:13:10.278Z,92.10
2019-05-22T13:15:43.681Z,92.20
2019-05-22T13:18:17.827Z,92.00
2019-05-22T13:20:51.077Z,91.90
2019-05-22T13:23:24.756Z,92.00
2019-05-22T13:26:00.100Z,91.80
2019-05-22T13:28:30.567Z,91.80
2019-05-22T13:31:00.941Z,91.80
2019-05-22T13:33:31.526Z,91.50
2019-05-22T13:36:03.537Z,91.50
2019-05-22T13:38:33.378Z,91.60
2019-05-22T13:41:03.783Z,91.60
2019-05-22T13:43:34.348Z,91.60
2019-05-22T13:46:05.291Z,91.70
2019-05-22T13:48:35.647Z,91.50
2019-05-22T13:51:07.684Z,91.40
2019-05-22T13:53:38.196Z,91.30
2019-05-22T13:56:08.937Z,91.20
2019-05-22T13:58:39.390Z,91.10
2019-05-22T14:01:09.745Z,90.80
2019-05-22T14:03:40.367Z,90.90
2019-05-22T14:06:10.450Z,91.00
2019-05-22T14:08:40.526Z,91.00
2019-05-22T14:11:11.579Z,91.00
2019-05-22T14:13:41.464Z,91.00
2019-05-22T14:16:12.303Z,90.90
2019-05-22T14:18:42.546Z,90.50
2019-05-22T14:21:12.576Z,90.10
2019-05-22T14:23:42.715Z,90.30
2019-05-22T14:26:12.443Z,90.30
2019-05-22T14:28:42.611Z,90.00
2019-05-22T14:31:12.893Z,90.10
2019-05-22T14:33:43.113Z,90.10
2019-05-22T14:36:12.864Z,89.90
2019-05-22T14:38:43.350Z,90.10
2019-05-22T14:41:14.455Z,90.30
2019-05-22T14:43:44.920Z,90.50
2019-05-22T14:46:15.035Z,90.50
2019-05-22T14:48:44.858Z,90.50
2019-05-22T14:51:16.187Z,90.40
2019-05-22T14:53:47.760Z,90.40
2019-05-22T14:56:17.902Z,89.90
2019-05-22T14:58:48.210Z,89.60
2019-05-22T15:01:18.668Z,88.80
2019-05-22T15:03:48.915Z,88.90
2019-05-22T15:06:19.491Z,88.00
2019-05-22T15:08:49.351Z,87.90
2019-05-22T15:11:19.576Z,87.80
2019-05-22T15:13:49.366Z,88.30
2019-05-22T15:16:19.458Z,88.10
2019-05-22T15:18:49.750Z,87.80
2019-05-22T15:21:20.052Z,88.30
2019-05-22T15:23:51.358Z,88.40
2019-05-22T15:26:21.485Z,88.60
2019-05-22T15:28:51.974Z,88.20
2019-05-22T15:31:21.990Z,87.80
2019-05-22T15:33:51.992Z,87.70
2019-05-22T15:36:24.307Z,88.00
2019-05-22T15:38:54.627Z,88.00
2019-05-22T15:41:25.893Z,87.80
2019-05-22T15:43:56.371Z,87.40
2019-05-22T15:46:28.235Z,87.30
2019-05-22T15:48:58.182Z,87.70
2019-05-22T15:51:31.998Z,87.60
2019-05-22T15:54:06.929Z,87.60
2019-05-22T15:56:38.321Z,87.40
2019-05-22T15:59:10.127Z,87.00
2019-05-22T16:01:41.494Z,86.60
2019-05-22T16:04:12.500Z,86.30
2019-05-22T16:06:43.263Z,85.90
2019-05-22T16:09:16.102Z,86.40
2019-05-22T16:11:49.524Z,85.40
2019-05-22T16:14:21.076Z,85.60
2019-05-22T16:16:52.700Z,85.40
2019-05-22T16:19:24.594Z,85.10
2019-05-22T16:21:57.673Z,85.60
2019-05-22T16:24:27.612Z,85.70
2019-05-22T16:26:58.088Z,84.40
2019-05-22T16:29:27.932Z,85.40
2019-05-22T16:31:58.277Z,85.80
2019-05-22T16:34:29.367Z,85.90
2019-05-22T16:37:03.727Z,86.10
2019-05-22T16:39:32.373Z,85.80
2019-05-22T16:42:02.105Z,85.20
2019-05-22T16:44:32.987Z,84.60
2019-05-22T16:47:04.216Z,84.10
2019-05-22T16:49:34.743Z,82.20
2019-05-22T16:52:06.897Z,82.80
2019-05-22T16:54:39.810Z,83.00
2019-05-22T16:57:10.677Z,81.80
2019-05-22T16:59:41.945Z,82.20
2019-05-22T17:02:14.079Z,82.00
2019-05-22T17:04:44.261Z,81.70
2019-05-22T17:07:15.209Z,82.00
2019-05-22T17:09:47.222Z,82.10
2019-05-22T17:12:18.317Z,81.90
2019-05-22T17:14:49.459Z,81.40
2019-05-22T17:17:20.091Z,81.40
2019-05-22T17:19:50.416Z,81.20
2019-05-22T17:22:20.674Z,81.70
2019-05-22T17:24:51.129Z,82.00
2019-05-22T17:27:22.772Z,82.10
2019-05-22T17:29:53.043Z,81.50
2019-05-22T17:32:25.253Z,81.70
2019-05-22T17:34:56.396Z,81.50
2019-05-22T17:37:26.624Z,81.80
2019-05-22T17:39:56.928Z,81.60
2019-05-22T17:42:28.068Z,81.10
2019-05-22T17:45:00.434Z,80.40
2019-05-22T17:47:30.622Z,80.50
2019-05-22T17:50:26.905Z,81.10
2019-05-22T17:52:49.878Z,81.50
2019-05-22T17:55:21.748Z,81.50
2019-05-22T17:57:52.969Z,82.00
2019-05-22T18:00:36.414Z,81.50
2019-05-22T18:03:07.147Z,80.90
2019-05-22T18:05:37.330Z,80.80
2019-05-22T18:08:07.480Z,81.40
2019-05-22T18:10:40.774Z,81.20
2019-05-22T18:13:12.252Z,81.00
2019-05-22T18:15:42.373Z,80.80
2019-05-22T18:18:13.064Z,80.90
2019-05-22T18:20:44.282Z,80.70
2019-05-22T18:23:14.520Z,80.70
2019-05-22T18:25:45.204Z,81.10
2019-05-22T18:28:16.072Z,81.30
2019-05-22T18:30:45.947Z,81.50
2019-05-22T18:33:15.851Z,81.60
2019-05-22T18:35:45.863Z,81.50
2019-05-22T18:38:15.664Z,81.90
2019-05-22T18:40:45.855Z,82.00
2019-05-22T18:43:18.707Z,81.80
2019-05-22T18:45:47.476Z,81.50
2019-05-22T18:48:17.518Z,81.30
2019-05-22T18:50:47.494Z,81.20
2019-05-22T18:53:17.433Z,81.20
2019-05-22T18:55:47.640Z,81.10
2019-05-22T18:58:17.403Z,81.20
2019-05-22T19:00:47.830Z,81.30
2019-05-22T19:03:17.907Z,81.30
2019-05-22T19:05:47.913Z,81.90
2019-05-22T19:08:18.089Z,82.10
2019-05-22T19:10:47.892Z,82.60
2019-05-22T19:13:17.784Z,83.30
2019-05-22T19:15:47.885Z,84.10
2019-05-22T19:18:17.820Z,85.10
2019-05-22T19:20:47.575Z,84.30
2019-05-22T19:23:17.974Z,84.30
2019-05-22T19:25:48.028Z,84.20
2019-05-22T19:28:42.143Z,84.40
2019-05-22T19:31:02.808Z,84.20
2019-05-22T19:33:32.960Z,84.40
2019-05-22T19:36:04.765Z,84.60
2019-05-22T19:38:35.051Z,84.70
2019-05-22T19:41:05.809Z,84.90
2019-05-22T19:43:38.769Z,85.10
2019-05-22T19:46:08.709Z,85.70
2019-05-22T19:48:39.708Z,86.50
2019-05-22T19:51:10.468Z,86.80
2019-05-22T19:53:41.276Z,87.20
2019-05-22T19:56:11.515Z,87.80
2019-05-22T19:58:42.040Z,88.20
2019-05-22T21:04:59.529Z,90.20
2019-05-22T21:07:36.325Z,90.50
2019-05-22T21:10:08.028Z,90.50
2019-05-22T21:12:37.758Z,90.50
2019-05-22T21:15:08.233Z,90.60
2019-05-22T21:17:38.485Z,90.50
2019-05-22T21:20:10.392Z,90.60
2019-05-22T21:22:40.319Z,90.60
2019-05-22T21:25:12.077Z,90.50
2019-05-22T21:27:42.663Z,90.50
2019-05-22T21:30:14.051Z,90.40
2019-05-22T21:32:45.679Z,90.20
2019-05-22T21:35:17.064Z,90.20
2019-05-22T21:37:47.178Z,90.30
2019-05-22T21:40:19.751Z,90.30
2019-05-22T21:42:51.073Z,90.50
2019-05-22T21:45:21.469Z,90.50
2019-05-22T21:47:52.692Z,90.50
2019-05-22T21:50:42.632Z,90.50
2019-05-22T21:53:03.426Z,90.50
2019-05-22T21:55:33.170Z,90.60
2019-05-22T21:58:04.743Z,90.50
2019-05-22T22:00:41.785Z,90.50
2019-05-22T22:03:19.505Z,90.50
2019-05-22T22:05:50.187Z,90.40
2019-05-22T22:08:20.297Z,90.40
2019-05-22T22:10:50.304Z,90.50
2019-05-22T22:13:21.749Z,90.60
2019-05-22T22:15:51.584Z,90.70
2019-05-22T22:18:24.614Z,90.80
2019-05-22T22:20:53.386Z,90.90
2019-05-22T22:23:23.482Z,90.90
2019-05-22T22:25:53.861Z,90.90
2019-05-22T22:28:25.160Z,90.90
2019-05-22T22:30:57.563Z,91.00
2019-05-22T22:33:31.546Z,91.10
2019-05-22T22:36:02.573Z,91.10
2019-05-22T22:38:32.992Z,91.00
2019-05-22T22:41:04.950Z,91.00
2019-05-22T22:43:37.640Z,91.10
2019-05-22T22:46:16.402Z,91.10
2019-05-22T22:48:48.352Z,91.10
2019-05-22T22:51:20.490Z,91.00
2019-05-22T22:53:59.546Z,90.90
2019-05-22T22:56:29.228Z,90.90
2019-05-22T22:58:59.524Z,90.90
2019-05-22T23:01:31.037Z,91.00
2019-05-22T23:04:03.802Z,91.10
2019-05-22T23:06:36.242Z,91.20
2019-05-22T23:09:08.017Z,91.20
2019-05-22T23:11:41.667Z,91.20
2019-05-22T23:14:13.271Z,91.20
2019-05-22T23:16:43.409Z,91.40
2019-05-22T23:19:17.064Z,91.50
2019-05-22T23:21:48.601Z,91.60
2019-05-22T23:24:20.199Z,91.70
2019-05-22T23:26:51.732Z,91.90
2019-05-22T23:29:22.672Z,92.00
2019-05-22T23:31:56.030Z,92.10
2019-05-22T23:34:26.614Z,92.00
2019-05-22T23:36:57.047Z,92.10
2019-05-22T23:39:30.744Z,92.20
2019-05-22T23:42:04.611Z,92.20
2019-05-22T23:44:36.919Z,92.30
2019-05-22T23:47:08.397Z,92.50
2019-05-22T23:49:39.926Z,92.50
2019-05-22T23:52:10.307Z,92.70
2019-05-22T23:54:41.627Z,92.60
2019-05-22T23:57:13.716Z,92.60
2019-05-22T23:59:46.217Z,92.60
